sensor_id;sensor_type;location;lat;lon;timestamp;P1;durP1;ratioP1;P2;durP2;ratioP2
40609;SDS011;26316;55.976;37.140;2022-07-05T00:02:18;8.88;;;6.90;;
40609;SDS011;26316;55.976;37.140;2022-07-05T00:04:43;10.02;;;7.28;;
40609;SDS011;26316;55.976;37.140;2022-07-05T00:07:09;8.15;;;6.65;;
40609;SDS011;26316;55.976;37.140;2022-07-05T00:09:51;9.50;;;6.70;;
40609;SDS011;26316;55.976;37.140;2022-07-05T00:12:18;8.80;;;7.22;;
40609;SDS011;26316;55.976;37.140;2022-07-05T00:14:45;10.63;;;7.03;;
40609;SDS011;26316;55.976;37.140;2022-07-05T00:17:12;7.85;;;7.15;;
40609;SDS011;26316;55.976;37.140;2022-07-05T00:19:38;8.13;;;7.20;;
40609;SDS011;26316;55.976;37.140;2022-07-05T00:22:04;10.93;;;7.28;;
40609;SDS011;26316;55.976;37.140;2022-07-05T00:24:30;8.23;;;7.40;;
40609;SDS011;26316;55.976;37.140;2022-07-05T00:26:56;14.32;;;6.95;;
40609;SDS011;26316;55.976;37.140;2022-07-05T00:29:22;9.98;;;7.05;;
40609;SDS011;26316;55.976;37.140;2022-07-05T00:31:48;9.57;;;6.97;;
40609;SDS011;26316;55.976;37.140;2022-07-05T00:34:14;10.93;;;6.80;;
40609;SDS011;26316;55.976;37.140;2022-07-05T00:36:40;8.90;;;6.55;;
40609;SDS011;26316;55.976;37.140;2022-07-05T00:39:06;12.73;;;7.07;;
40609;SDS011;26316;55.976;37.140;2022-07-05T00:41:32;9.80;;;7.15;;
40609;SDS011;26316;55.976;37.140;2022-07-05T00:44:02;9.00;;;7.28;;
40609;SDS011;26316;55.976;37.140;2022-07-05T00:46:30;7.47;;;6.68;;
40609;SDS011;26316;55.976;37.140;2022-07-05T00:48:59;9.75;;;6.80;;
40609;SDS011;26316;55.976;37.140;2022-07-05T00:51:26;7.47;;;6.60;;
40609;SDS011;26316;55.976;37.140;2022-07-05T00:53:51;11.98;;;7.25;;
40609;SDS011;26316;55.976;37.140;2022-07-05T00:56:17;8.95;;;6.80;;
40609;SDS011;26316;55.976;37.140;2022-07-05T00:58:44;10.57;;;6.53;;
40609;SDS011;26316;55.976;37.140;2022-07-05T01:01:10;11.55;;;6.78;;
40609;SDS011;26316;55.976;37.140;2022-07-05T01:03:36;9.88;;;7.10;;
40609;SDS011;26316;55.976;37.140;2022-07-05T01:06:05;9.30;;;6.78;;
40609;SDS011;26316;55.976;37.140;2022-07-05T01:08:32;11.10;;;6.72;;
40609;SDS011;26316;55.976;37.140;2022-07-05T01:10:59;9.68;;;6.78;;
40609;SDS011;26316;55.976;37.140;2022-07-05T01:13:25;9.25;;;7.18;;
40609;SDS011;26316;55.976;37.140;2022-07-05T01:15:51;9.98;;;7.18;;
40609;SDS011;26316;55.976;37.140;2022-07-05T01:18:18;8.32;;;7.00;;
40609;SDS011;26316;55.976;37.140;2022-07-05T01:20:44;7.15;;;6.50;;
40609;SDS011;26316;55.976;37.140;2022-07-05T01:23:10;8.38;;;6.38;;
40609;SDS011;26316;55.976;37.140;2022-07-05T01:25:38;10.02;;;6.78;;
40609;SDS011;26316;55.976;37.140;2022-07-05T01:28:06;8.20;;;6.30;;
40609;SDS011;26316;55.976;37.140;2022-07-05T01:30:35;10.00;;;6.78;;
40609;SDS011;26316;55.976;37.140;2022-07-05T01:33:01;8.45;;;6.70;;
40609;SDS011;26316;55.976;37.140;2022-07-05T01:35:27;11.02;;;6.82;;
40609;SDS011;26316;55.976;37.140;2022-07-05T01:37:53;9.45;;;6.60;;
40609;SDS011;26316;55.976;37.140;2022-07-05T01:40:19;7.82;;;6.45;;
40609;SDS011;26316;55.976;37.140;2022-07-05T01:42:46;8.02;;;6.57;;
40609;SDS011;26316;55.976;37.140;2022-07-05T01:45:12;10.60;;;6.72;;
40609;SDS011;26316;55.976;37.140;2022-07-05T01:47:58;10.38;;;6.68;;
40609;SDS011;26316;55.976;37.140;2022-07-05T01:50:24;8.52;;;7.03;;
40609;SDS011;26316;55.976;37.140;2022-07-05T01:52:50;7.18;;;6.30;;
40609;SDS011;26316;55.976;37.140;2022-07-05T01:55:17;10.30;;;6.60;;
40609;SDS011;26316;55.976;37.140;2022-07-05T01:57:43;8.25;;;7.32;;
40609;SDS011;26316;55.976;37.140;2022-07-05T02:00:09;8.75;;;6.95;;
40609;SDS011;26316;55.976;37.140;2022-07-05T02:02:47;10.60;;;6.75;;
40609;SDS011;26316;55.976;37.140;2022-07-05T02:05:13;11.00;;;6.78;;
40609;SDS011;26316;55.976;37.140;2022-07-05T02:07:47;10.52;;;7.45;;
40609;SDS011;26316;55.976;37.140;2022-07-05T02:10:14;11.18;;;6.80;;
40609;SDS011;26316;55.976;37.140;2022-07-05T02:12:40;8.75;;;6.82;;
40609;SDS011;26316;55.976;37.140;2022-07-05T02:15:06;8.15;;;6.55;;
40609;SDS011;26316;55.976;37.140;2022-07-05T02:17:32;8.45;;;6.95;;
40609;SDS011;26316;55.976;37.140;2022-07-05T02:19:58;8.65;;;7.55;;
40609;SDS011;26316;55.976;37.140;2022-07-05T02:22:25;7.90;;;6.70;;
40609;SDS011;26316;55.976;37.140;2022-07-05T02:24:51;8.45;;;6.95;;
40609;SDS011;26316;55.976;37.140;2022-07-05T02:27:23;9.25;;;7.00;;
40609;SDS011;26316;55.976;37.140;2022-07-05T02:29:50;8.93;;;6.60;;
40609;SDS011;26316;55.976;37.140;2022-07-05T02:32:21;11.55;;;6.95;;
40609;SDS011;26316;55.976;37.140;2022-07-05T02:34:47;9.15;;;7.47;;
40609;SDS011;26316;55.976;37.140;2022-07-05T02:37:13;10.57;;;7.28;;
40609;SDS011;26316;55.976;37.140;2022-07-05T02:39:39;9.00;;;7.10;;
40609;SDS011;26316;55.976;37.140;2022-07-05T02:42:07;8.15;;;6.75;;
40609;SDS011;26316;55.976;37.140;2022-07-05T02:44:33;8.13;;;7.25;;
40609;SDS011;26316;55.976;37.140;2022-07-05T02:47:00;14.93;;;7.45;;
40609;SDS011;26316;55.976;37.140;2022-07-05T02:49:29;10.57;;;7.38;;
40609;SDS011;26316;55.976;37.140;2022-07-05T02:51:55;10.93;;;7.65;;
40609;SDS011;26316;55.976;37.140;2022-07-05T02:54:21;9.75;;;7.10;;
40609;SDS011;26316;55.976;37.140;2022-07-05T02:56:48;9.82;;;7.18;;
40609;SDS011;26316;55.976;37.140;2022-07-05T02:59:15;11.63;;;7.18;;
40609;SDS011;26316;55.976;37.140;2022-07-05T03:01:41;9.93;;;7.03;;
40609;SDS011;26316;55.976;37.140;2022-07-05T03:04:11;16.52;;;7.13;;
40609;SDS011;26316;55.976;37.140;2022-07-05T03:06:40;8.52;;;6.50;;
40609;SDS011;26316;55.976;37.140;2022-07-05T03:09:06;15.23;;;7.18;;
40609;SDS011;26316;55.976;37.140;2022-07-05T03:11:33;7.40;;;6.38;;
40609;SDS011;26316;55.976;37.140;2022-07-05T03:13:59;9.35;;;6.38;;
40609;SDS011;26316;55.976;37.140;2022-07-05T03:16:25;13.73;;;7.28;;
40609;SDS011;26316;55.976;37.140;2022-07-05T03:18:52;8.68;;;6.97;;
40609;SDS011;26316;55.976;37.140;2022-07-05T03:21:18;7.07;;;6.38;;
40609;SDS011;26316;55.976;37.140;2022-07-05T03:23:44;11.63;;;7.25;;
40609;SDS011;26316;55.976;37.140;2022-07-05T03:26:10;8.30;;;6.63;;
40609;SDS011;26316;55.976;37.140;2022-07-05T03:28:35;10.45;;;7.95;;
40609;SDS011;26316;55.976;37.140;2022-07-05T03:31:01;11.60;;;7.10;;
40609;SDS011;26316;55.976;37.140;2022-07-05T03:33:31;11.90;;;7.32;;
40609;SDS011;26316;55.976;37.140;2022-07-05T03:35:59;7.93;;;6.45;;
40609;SDS011;26316;55.976;37.140;2022-07-05T03:38:25;9.70;;;6.63;;
40609;SDS011;26316;55.976;37.140;2022-07-05T03:40:53;12.75;;;7.25;;
40609;SDS011;26316;55.976;37.140;2022-07-05T03:43:21;13.57;;;7.43;;
40609;SDS011;26316;55.976;37.140;2022-07-05T03:45:47;8.23;;;6.95;;
40609;SDS011;26316;55.976;37.140;2022-07-05T03:48:13;10.88;;;7.32;;
40609;SDS011;26316;55.976;37.140;2022-07-05T03:50:38;9.25;;;7.18;;
40609;SDS011;26316;55.976;37.140;2022-07-05T03:53:05;8.57;;;6.72;;
40609;SDS011;26316;55.976;37.140;2022-07-05T03:55:30;9.90;;;6.43;;
40609;SDS011;26316;55.976;37.140;2022-07-05T03:58:05;14.75;;;6.70;;
40609;SDS011;26316;55.976;37.140;2022-07-05T04:00:31;9.45;;;6.95;;
40609;SDS011;26316;55.976;37.140;2022-07-05T04:03:03;7.10;;;6.40;;
40609;SDS011;26316;55.976;37.140;2022-07-05T04:05:29;12.23;;;6.78;;
40609;SDS011;26316;55.976;37.140;2022-07-05T04:07:56;12.32;;;7.20;;
40609;SDS011;26316;55.976;37.140;2022-07-05T04:10:27;11.38;;;7.68;;
40609;SDS011;26316;55.976;37.140;2022-07-05T04:12:53;11.90;;;7.40;;
40609;SDS011;26316;55.976;37.140;2022-07-05T04:15:19;11.70;;;7.45;;
40609;SDS011;26316;55.976;37.140;2022-07-05T04:17:47;10.00;;;7.32;;
40609;SDS011;26316;55.976;37.140;2022-07-05T04:20:14;11.88;;;7.00;;
40609;SDS011;26316;55.976;37.140;2022-07-05T04:22:41;9.73;;;7.20;;
40609;SDS011;26316;55.976;37.140;2022-07-05T04:25:07;11.65;;;6.53;;
40609;SDS011;26316;55.976;37.140;2022-07-05T04:27:48;8.38;;;6.05;;
40609;SDS011;26316;55.976;37.140;2022-07-05T04:30:16;9.75;;;7.28;;
40609;SDS011;26316;55.976;37.140;2022-07-05T04:32:42;16.20;;;7.43;;
40609;SDS011;26316;55.976;37.140;2022-07-05T04:35:09;13.25;;;6.60;;
40609;SDS011;26316;55.976;37.140;2022-07-05T04:37:36;12.15;;;6.97;;
40609;SDS011;26316;55.976;37.140;2022-07-05T04:40:06;16.10;;;7.38;;
40609;SDS011;26316;55.976;37.140;2022-07-05T04:42:36;13.18;;;7.13;;
40609;SDS011;26316;55.976;37.140;2022-07-05T04:45:02;12.07;;;7.32;;
40609;SDS011;26316;55.976;37.140;2022-07-05T04:47:29;13.38;;;7.00;;
40609;SDS011;26316;55.976;37.140;2022-07-05T04:49:56;9.43;;;6.45;;
40609;SDS011;26316;55.976;37.140;2022-07-05T04:52:23;10.57;;;7.10;;
40609;SDS011;26316;55.976;37.140;2022-07-05T04:54:50;8.93;;;6.70;;
40609;SDS011;26316;55.976;37.140;2022-07-05T04:57:16;15.93;;;7.65;;
40609;SDS011;26316;55.976;37.140;2022-07-05T04:59:42;9.27;;;7.53;;
40609;SDS011;26316;55.976;37.140;2022-07-05T05:02:07;10.80;;;6.90;;
40609;SDS011;26316;55.976;37.140;2022-07-05T05:04:33;14.73;;;7.55;;
40609;SDS011;26316;55.976;37.140;2022-07-05T05:06:59;11.10;;;7.72;;
40609;SDS011;26316;55.976;37.140;2022-07-05T05:09:25;14.65;;;7.40;;
40609;SDS011;26316;55.976;37.140;2022-07-05T05:11:50;16.95;;;7.68;;
40609;SDS011;26316;55.976;37.140;2022-07-05T05:14:16;12.75;;;7.10;;
40609;SDS011;26316;55.976;37.140;2022-07-05T05:16:42;12.25;;;7.00;;
40609;SDS011;26316;55.976;37.140;2022-07-05T05:19:08;11.10;;;6.93;;
40609;SDS011;26316;55.976;37.140;2022-07-05T05:21:33;12.18;;;6.55;;
40609;SDS011;26316;55.976;37.140;2022-07-05T05:23:59;8.70;;;6.22;;
40609;SDS011;26316;55.976;37.140;2022-07-05T05:26:25;11.18;;;7.25;;
40609;SDS011;26316;55.976;37.140;2022-07-05T05:28:51;9.20;;;6.90;;
40609;SDS011;26316;55.976;37.140;2022-07-05T05:31:17;14.73;;;7.13;;
40609;SDS011;26316;55.976;37.140;2022-07-05T05:33:44;13.02;;;6.68;;
40609;SDS011;26316;55.976;37.140;2022-07-05T05:36:10;9.82;;;6.18;;
40609;SDS011;26316;55.976;37.140;2022-07-05T05:38:36;8.63;;;5.72;;
40609;SDS011;26316;55.976;37.140;2022-07-05T05:41:02;6.03;;;5.53;;
40609;SDS011;26316;55.976;37.140;2022-07-05T05:43:28;7.70;;;5.70;;
40609;SDS011;26316;55.976;37.140;2022-07-05T05:45:53;10.60;;;6.60;;
40609;SDS011;26316;55.976;37.140;2022-07-05T05:48:19;12.68;;;6.68;;
40609;SDS011;26316;55.976;37.140;2022-07-05T05:50:45;7.65;;;6.72;;
40609;SDS011;26316;55.976;37.140;2022-07-05T05:53:14;10.52;;;6.10;;
40609;SDS011;26316;55.976;37.140;2022-07-05T05:55:40;7.68;;;6.72;;
40609;SDS011;26316;55.976;37.140;2022-07-05T05:58:24;6.45;;;5.72;;
40609;SDS011;26316;55.976;37.140;2022-07-05T06:00:52;7.72;;;6.63;;
40609;SDS011;26316;55.976;37.140;2022-07-05T06:03:19;7.15;;;6.28;;
40609;SDS011;26316;55.976;37.140;2022-07-05T06:05:45;15.35;;;6.30;;
40609;SDS011;26316;55.976;37.140;2022-07-05T06:08:12;7.10;;;6.40;;
40609;SDS011;26316;55.976;37.140;2022-07-05T06:10:38;9.15;;;6.53;;
40609;SDS011;26316;55.976;37.140;2022-07-05T06:13:08;6.78;;;6.07;;
40609;SDS011;26316;55.976;37.140;2022-07-05T06:15:35;7.10;;;6.45;;
40609;SDS011;26316;55.976;37.140;2022-07-05T06:18:01;8.50;;;5.82;;
40609;SDS011;26316;55.976;37.140;2022-07-05T06:20:28;8.25;;;6.22;;
40609;SDS011;26316;55.976;37.140;2022-07-05T06:22:56;8.60;;;5.93;;
40609;SDS011;26316;55.976;37.140;2022-07-05T06:25:24;7.67;;;6.20;;
40609;SDS011;26316;55.976;37.140;2022-07-05T06:27:57;8.00;;;6.32;;
40609;SDS011;26316;55.976;37.140;2022-07-05T06:30:27;8.43;;;6.50;;
40609;SDS011;26316;55.976;37.140;2022-07-05T06:32:56;7.53;;;5.80;;
40609;SDS011;26316;55.976;37.140;2022-07-05T06:35:22;6.85;;;6.00;;
40609;SDS011;26316;55.976;37.140;2022-07-05T06:37:52;10.88;;;6.28;;
40609;SDS011;26316;55.976;37.140;2022-07-05T06:40:21;6.93;;;6.25;;
40609;SDS011;26316;55.976;37.140;2022-07-05T06:42:48;11.55;;;7.55;;
40609;SDS011;26316;55.976;37.140;2022-07-05T06:45:16;6.88;;;6.18;;
40609;SDS011;26316;55.976;37.140;2022-07-05T06:47:41;6.63;;;6.03;;
40609;SDS011;26316;55.976;37.140;2022-07-05T06:50:08;6.38;;;5.75;;
40609;SDS011;26316;55.976;37.140;2022-07-05T06:52:36;8.65;;;6.65;;
40609;SDS011;26316;55.976;37.140;2022-07-05T06:55:03;13.88;;;6.55;;
40609;SDS011;26316;55.976;37.140;2022-07-05T06:57:29;7.32;;;6.35;;
40609;SDS011;26316;55.976;37.140;2022-07-05T06:59:55;7.80;;;6.38;;
40609;SDS011;26316;55.976;37.140;2022-07-05T07:02:22;9.77;;;5.72;;
40609;SDS011;26316;55.976;37.140;2022-07-05T07:04:47;6.50;;;5.85;;
40609;SDS011;26316;55.976;37.140;2022-07-05T07:07:14;8.50;;;6.32;;
40609;SDS011;26316;55.976;37.140;2022-07-05T07:09:58;7.65;;;5.93;;
40609;SDS011;26316;55.976;37.140;2022-07-05T07:12:25;6.60;;;5.93;;
40609;SDS011;26316;55.976;37.140;2022-07-05T07:14:51;6.75;;;6.03;;
40609;SDS011;26316;55.976;37.140;2022-07-05T07:17:18;5.68;;;5.28;;
40609;SDS011;26316;55.976;37.140;2022-07-05T07:19:44;7.32;;;5.70;;
40609;SDS011;26316;55.976;37.140;2022-07-05T07:22:10;8.57;;;6.05;;
40609;SDS011;26316;55.976;37.140;2022-07-05T07:24:36;6.25;;;5.65;;
40609;SDS011;26316;55.976;37.140;2022-07-05T07:27:01;6.18;;;5.65;;
40609;SDS011;26316;55.976;37.140;2022-07-05T07:29:32;6.15;;;5.55;;
40609;SDS011;26316;55.976;37.140;2022-07-05T07:31:59;5.72;;;5.22;;
40609;SDS011;26316;55.976;37.140;2022-07-05T07:34:26;9.35;;;6.00;;
40609;SDS011;26316;55.976;37.140;2022-07-05T07:36:53;7.68;;;6.30;;
40609;SDS011;26316;55.976;37.140;2022-07-05T07:39:20;6.72;;;6.05;;
40609;SDS011;26316;55.976;37.140;2022-07-05T07:41:46;8.57;;;6.32;;
40609;SDS011;26316;55.976;37.140;2022-07-05T07:44:12;6.22;;;5.63;;
40609;SDS011;26316;55.976;37.140;2022-07-05T07:46:37;5.90;;;5.38;;
40609;SDS011;26316;55.976;37.140;2022-07-05T07:49:07;7.78;;;6.15;;
40609;SDS011;26316;55.976;37.140;2022-07-05T07:51:33;6.55;;;6.00;;
40609;SDS011;26316;55.976;37.140;2022-07-05T07:53:59;6.47;;;5.78;;
40609;SDS011;26316;55.976;37.140;2022-07-05T07:56:25;6.78;;;5.70;;
40609;SDS011;26316;55.976;37.140;2022-07-05T07:58:51;6.70;;;6.20;;
40609;SDS011;26316;55.976;37.140;2022-07-05T08:01:17;6.85;;;6.25;;
40609;SDS011;26316;55.976;37.140;2022-07-05T08:03:43;6.78;;;6.18;;
40609;SDS011;26316;55.976;37.140;2022-07-05T08:06:10;7.40;;;6.22;;
40609;SDS011;26316;55.976;37.140;2022-07-05T08:08:37;7.60;;;6.22;;
40609;SDS011;26316;55.976;37.140;2022-07-05T08:11:04;6.43;;;5.93;;
40609;SDS011;26316;55.976;37.140;2022-07-05T08:13:30;8.85;;;5.93;;
40609;SDS011;26316;55.976;37.140;2022-07-05T08:15:56;7.05;;;5.50;;
40609;SDS011;26316;55.976;37.140;2022-07-05T08:18:23;8.25;;;5.70;;
40609;SDS011;26316;55.976;37.140;2022-07-05T08:21:07;6.15;;;5.65;;
40609;SDS011;26316;55.976;37.140;2022-07-05T08:23:51;5.82;;;5.32;;
40609;SDS011;26316;55.976;37.140;2022-07-05T08:26:17;6.28;;;5.78;;
40609;SDS011;26316;55.976;37.140;2022-07-05T08:28:43;6.35;;;5.85;;
40609;SDS011;26316;55.976;37.140;2022-07-05T08:31:08;7.85;;;7.22;;
40609;SDS011;26316;55.976;37.140;2022-07-05T08:33:34;7.88;;;6.47;;
40609;SDS011;26316;55.976;37.140;2022-07-05T08:36:00;7.10;;;6.40;;
40609;SDS011;26316;55.976;37.140;2022-07-05T08:38:26;6.53;;;5.85;;
40609;SDS011;26316;55.976;37.140;2022-07-05T08:40:52;9.45;;;6.50;;
40609;SDS011;26316;55.976;37.140;2022-07-05T08:43:23;8.65;;;6.03;;
40609;SDS011;26316;55.976;37.140;2022-07-05T08:45:55;7.07;;;6.35;;
40609;SDS011;26316;55.976;37.140;2022-07-05T08:48:22;6.32;;;5.85;;
40609;SDS011;26316;55.976;37.140;2022-07-05T08:50:49;6.75;;;6.07;;
40609;SDS011;26316;55.976;37.140;2022-07-05T08:53:20;7.40;;;6.65;;
40609;SDS011;26316;55.976;37.140;2022-07-05T08:55:48;6.82;;;6.20;;
40609;SDS011;26316;55.976;37.140;2022-07-05T08:58:14;6.40;;;5.82;;
40609;SDS011;26316;55.976;37.140;2022-07-05T09:00:40;6.97;;;6.32;;
40609;SDS011;26316;55.976;37.140;2022-07-05T09:03:09;6.97;;;6.30;;
40609;SDS011;26316;55.976;37.140;2022-07-05T09:05:43;6.88;;;6.25;;
40609;SDS011;26316;55.976;37.140;2022-07-05T09:08:13;6.40;;;5.88;;
40609;SDS011;26316;55.976;37.140;2022-07-05T09:10:40;6.85;;;6.10;;
40609;SDS011;26316;55.976;37.140;2022-07-05T09:13:08;9.30;;;6.38;;
40609;SDS011;26316;55.976;37.140;2022-07-05T09:15:33;31.33;;;26.65;;
40609;SDS011;26316;55.976;37.140;2022-07-05T09:18:02;110.88;;;100.35;;
40609;SDS011;26316;55.976;37.140;2022-07-05T09:20:29;115.82;;;104.63;;
40609;SDS011;26316;55.976;37.140;2022-07-05T09:22:55;110.88;;;100.57;;
40609;SDS011;26316;55.976;37.140;2022-07-05T09:28:01;91.82;;;82.90;;
40609;SDS011;26316;55.976;37.140;2022-07-05T09:30:33;76.38;;;69.28;;
40609;SDS011;26316;55.976;37.140;2022-07-05T09:35:32;57.55;;;52.20;;
40609;SDS011;26316;55.976;37.140;2022-07-05T09:37:59;51.38;;;46.60;;
40609;SDS011;26316;55.976;37.140;2022-07-05T09:40:32;43.92;;;39.95;;
40609;SDS011;26316;55.976;37.140;2022-07-05T09:43:14;37.05;;;33.47;;
40609;SDS011;26316;55.976;37.140;2022-07-05T09:46:01;33.28;;;29.67;;
40609;SDS011;26316;55.976;37.140;2022-07-05T09:48:28;30.33;;;27.27;;
40609;SDS011;26316;55.976;37.140;2022-07-05T09:51:12;27.02;;;24.73;;
40609;SDS011;26316;55.976;37.140;2022-07-05T09:56:14;20.05;;;17.98;;
40609;SDS011;26316;55.976;37.140;2022-07-05T09:58:41;21.60;;;15.90;;
40609;SDS011;26316;55.976;37.140;2022-07-05T10:01:29;15.15;;;13.55;;
40609;SDS011;26316;55.976;37.140;2022-07-05T10:03:58;22.10;;;12.68;;
40609;SDS011;26316;55.976;37.140;2022-07-05T10:06:31;17.63;;;12.20;;
40609;SDS011;26316;55.976;37.140;2022-07-05T10:08:58;13.45;;;10.50;;
40609;SDS011;26316;55.976;37.140;2022-07-05T10:11:24;13.55;;;10.50;;
40609;SDS011;26316;55.976;37.140;2022-07-05T10:13:51;17.50;;;9.80;;
40609;SDS011;26316;55.976;37.140;2022-07-05T10:16:20;11.10;;;9.00;;
40609;SDS011;26316;55.976;37.140;2022-07-05T10:18:51;12.35;;;9.57;;
40609;SDS011;26316;55.976;37.140;2022-07-05T10:21:18;9.45;;;8.43;;
40609;SDS011;26316;55.976;37.140;2022-07-05T10:23:45;9.88;;;8.27;;
40609;SDS011;26316;55.976;37.140;2022-07-05T10:26:17;10.10;;;7.80;;
40609;SDS011;26316;55.976;37.140;2022-07-05T10:28:45;8.93;;;7.22;;
40609;SDS011;26316;55.976;37.140;2022-07-05T10:31:12;8.45;;;7.55;;
40609;SDS011;26316;55.976;37.140;2022-07-05T10:33:40;7.03;;;6.43;;
40609;SDS011;26316;55.976;37.140;2022-07-05T10:36:06;7.93;;;6.88;;
40609;SDS011;26316;55.976;37.140;2022-07-05T10:41:02;8.05;;;6.93;;
40609;SDS011;26316;55.976;37.140;2022-07-05T10:45:56;10.07;;;7.10;;
40609;SDS011;26316;55.976;37.140;2022-07-05T10:48:26;8.77;;;6.75;;
40609;SDS011;26316;55.976;37.140;2022-07-05T10:53:29;8.18;;;6.45;;
40609;SDS011;26316;55.976;37.140;2022-07-05T10:56:15;8.82;;;7.20;;
40609;SDS011;26316;55.976;37.140;2022-07-05T10:58:41;7.93;;;6.70;;
40609;SDS011;26316;55.976;37.140;2022-07-05T11:04:06;6.73;;;6.13;;
40609;SDS011;26316;55.976;37.140;2022-07-05T11:16:47;6.53;;;6.03;;
40609;SDS011;26316;55.976;37.140;2022-07-05T11:19:15;8.70;;;6.80;;
40609;SDS011;26316;55.976;37.140;2022-07-05T11:22:04;6.82;;;6.30;;
40609;SDS011;26316;55.976;37.140;2022-07-05T11:24:34;7.57;;;6.55;;
40609;SDS011;26316;55.976;37.140;2022-07-05T11:27:02;10.50;;;9.32;;
40609;SDS011;26316;55.976;37.140;2022-07-05T11:29:42;12.60;;;9.50;;
40609;SDS011;26316;55.976;37.140;2022-07-05T11:32:10;10.50;;;9.40;;
40609;SDS011;26316;55.976;37.140;2022-07-05T11:39:42;11.85;;;9.80;;
40609;SDS011;26316;55.976;37.140;2022-07-05T11:42:09;10.43;;;9.43;;
40609;SDS011;26316;55.976;37.140;2022-07-05T11:44:36;10.27;;;9.43;;
40609;SDS011;26316;55.976;37.140;2022-07-05T11:47:02;10.45;;;9.40;;
40609;SDS011;26316;55.976;37.140;2022-07-05T11:49:29;13.20;;;10.20;;
40609;SDS011;26316;55.976;37.140;2022-07-05T11:54:31;11.38;;;10.13;;
40609;SDS011;26316;55.976;37.140;2022-07-05T11:56:58;12.93;;;9.73;;
40609;SDS011;26316;55.976;37.140;2022-07-05T11:59:25;10.85;;;9.80;;
40609;SDS011;26316;55.976;37.140;2022-07-05T12:01:51;10.65;;;9.48;;
40609;SDS011;26316;55.976;37.140;2022-07-05T12:04:28;12.13;;;9.00;;
40609;SDS011;26316;55.976;37.140;2022-07-05T12:06:55;13.77;;;10.30;;
40609;SDS011;26316;55.976;37.140;2022-07-05T12:09:22;11.18;;;9.57;;
40609;SDS011;26316;55.976;37.140;2022-07-05T12:11:50;11.13;;;9.48;;
40609;SDS011;26316;55.976;37.140;2022-07-05T12:14:35;9.10;;;8.30;;
40609;SDS011;26316;55.976;37.140;2022-07-05T12:17:11;10.70;;;8.73;;
40609;SDS011;26316;55.976;37.140;2022-07-05T12:19:37;9.45;;;8.55;;
40609;SDS011;26316;55.976;37.140;2022-07-05T12:22:03;8.82;;;7.70;;
40609;SDS011;26316;55.976;37.140;2022-07-05T12:24:29;9.57;;;8.68;;
40609;SDS011;26316;55.976;37.140;2022-07-05T12:26:54;8.85;;;7.95;;
40609;SDS011;26316;55.976;37.140;2022-07-05T12:29:20;10.20;;;7.68;;
40609;SDS011;26316;55.976;37.140;2022-07-05T12:32:02;8.88;;;7.78;;
40609;SDS011;26316;55.976;37.140;2022-07-05T12:34:29;7.53;;;6.90;;
40609;SDS011;26316;55.976;37.140;2022-07-05T12:36:56;8.35;;;7.63;;
40609;SDS011;26316;55.976;37.140;2022-07-05T12:39:23;8.32;;;7.47;;
40609;SDS011;26316;55.976;37.140;2022-07-05T12:41:49;8.85;;;7.68;;
40609;SDS011;26316;55.976;37.140;2022-07-05T12:44:18;8.43;;;7.50;;
40609;SDS011;26316;55.976;37.140;2022-07-05T12:46:45;8.20;;;7.40;;
40609;SDS011;26316;55.976;37.140;2022-07-05T12:49:11;7.78;;;6.60;;
40609;SDS011;26316;55.976;37.140;2022-07-05T12:51:38;7.43;;;6.75;;
40609;SDS011;26316;55.976;37.140;2022-07-05T12:54:08;8.20;;;6.82;;
40609;SDS011;26316;55.976;37.140;2022-07-05T12:57:05;7.68;;;6.88;;
40609;SDS011;26316;55.976;37.140;2022-07-05T13:02:48;7.25;;;6.60;;
40609;SDS011;26316;55.976;37.140;2022-07-05T13:05:24;7.60;;;7.00;;
40609;SDS011;26316;55.976;37.140;2022-07-05T13:07:53;7.43;;;6.68;;
40609;SDS011;26316;55.976;37.140;2022-07-05T13:10:22;7.47;;;6.65;;
40609;SDS011;26316;55.976;37.140;2022-07-05T13:12:49;6.70;;;6.18;;
40609;SDS011;26316;55.976;37.140;2022-07-05T13:15:15;7.50;;;6.80;;
40609;SDS011;26316;55.976;37.140;2022-07-05T13:17:42;8.30;;;7.15;;
40609;SDS011;26316;55.976;37.140;2022-07-05T13:20:08;8.30;;;6.95;;
40609;SDS011;26316;55.976;37.140;2022-07-05T13:22:34;6.90;;;6.32;;
40609;SDS011;26316;55.976;37.140;2022-07-05T13:25:00;7.97;;;6.50;;
40609;SDS011;26316;55.976;37.140;2022-07-05T13:27:28;6.78;;;6.18;;
40609;SDS011;26316;55.976;37.140;2022-07-05T13:29:56;6.45;;;5.95;;
40609;SDS011;26316;55.976;37.140;2022-07-05T13:32:22;6.55;;;5.88;;
40609;SDS011;26316;55.976;37.140;2022-07-05T13:34:48;7.05;;;6.38;;
40609;SDS011;26316;55.976;37.140;2022-07-05T13:37:16;6.95;;;6.38;;
40609;SDS011;26316;55.976;37.140;2022-07-05T13:39:42;7.78;;;6.40;;
40609;SDS011;26316;55.976;37.140;2022-07-05T13:42:08;7.45;;;6.85;;
40609;SDS011;26316;55.976;37.140;2022-07-05T13:44:34;6.95;;;6.00;;
40609;SDS011;26316;55.976;37.140;2022-07-05T13:47:03;7.40;;;6.60;;
40609;SDS011;26316;55.976;37.140;2022-07-05T13:49:29;6.75;;;6.10;;
40609;SDS011;26316;55.976;37.140;2022-07-05T13:51:56;7.35;;;6.75;;
40609;SDS011;26316;55.976;37.140;2022-07-05T13:54:24;7.20;;;6.60;;
40609;SDS011;26316;55.976;37.140;2022-07-05T13:56:50;7.60;;;7.00;;
40609;SDS011;26316;55.976;37.140;2022-07-05T13:59:16;7.10;;;6.45;;
40609;SDS011;26316;55.976;37.140;2022-07-05T14:01:41;8.43;;;7.18;;
40609;SDS011;26316;55.976;37.140;2022-07-05T14:04:07;6.95;;;6.25;;
40609;SDS011;26316;55.976;37.140;2022-07-05T14:06:33;8.40;;;7.07;;
40609;SDS011;26316;55.976;37.140;2022-07-05T14:09:00;8.45;;;7.53;;
40609;SDS011;26316;55.976;37.140;2022-07-05T14:11:26;7.38;;;6.78;;
40609;SDS011;26316;55.976;37.140;2022-07-05T14:13:54;11.13;;;6.80;;
40609;SDS011;26316;55.976;37.140;2022-07-05T14:16:21;8.40;;;7.57;;
40609;SDS011;26316;55.976;37.140;2022-07-05T14:18:47;8.30;;;6.97;;
40609;SDS011;26316;55.976;37.140;2022-07-05T14:21:15;7.35;;;6.38;;
40609;SDS011;26316;55.976;37.140;2022-07-05T14:23:41;8.07;;;6.35;;
40609;SDS011;26316;55.976;37.140;2022-07-05T14:26:07;11.32;;;7.15;;
40609;SDS011;26316;55.976;37.140;2022-07-05T14:28:34;8.55;;;6.63;;
40609;SDS011;26316;55.976;37.140;2022-07-05T14:31:00;7.65;;;6.82;;
40609;SDS011;26316;55.976;37.140;2022-07-05T14:33:25;8.63;;;6.68;;
40609;SDS011;26316;55.976;37.140;2022-07-05T14:35:51;11.45;;;7.18;;
40609;SDS011;26316;55.976;37.140;2022-07-05T14:38:16;7.53;;;6.75;;
40609;SDS011;26316;55.976;37.140;2022-07-05T14:40:42;7.25;;;6.55;;
40609;SDS011;26316;55.976;37.140;2022-07-05T14:43:08;6.75;;;5.93;;
40609;SDS011;26316;55.976;37.140;2022-07-05T14:45:34;8.73;;;6.60;;
40609;SDS011;26316;55.976;37.140;2022-07-05T14:47:59;8.10;;;5.75;;
40609;SDS011;26316;55.976;37.140;2022-07-05T14:50:25;6.35;;;5.72;;
40609;SDS011;26316;55.976;37.140;2022-07-05T14:52:51;8.57;;;5.93;;
40609;SDS011;26316;55.976;37.140;2022-07-05T14:55:17;6.60;;;5.93;;
40609;SDS011;26316;55.976;37.140;2022-07-05T14:57:43;7.57;;;6.00;;
40609;SDS011;26316;55.976;37.140;2022-07-05T15:00:10;6.57;;;5.72;;
40609;SDS011;26316;55.976;37.140;2022-07-05T15:02:37;8.38;;;6.47;;
40609;SDS011;26316;55.976;37.140;2022-07-05T15:05:03;7.65;;;5.88;;
40609;SDS011;26316;55.976;37.140;2022-07-05T15:07:30;6.15;;;5.55;;
40609;SDS011;26316;55.976;37.140;2022-07-05T15:09:56;5.80;;;5.40;;
40609;SDS011;26316;55.976;37.140;2022-07-05T15:12:22;6.45;;;5.40;;